Terminal Aerodrome Forecast
Issued by NWS Green Bay, WI

Home | Current Version | Previous Version | Graphics & Text | Print | Product List | Glossary On
Versions: 1 2 3 4 5 6 7 8 9 10 11 12 13 14 15 16 17 18 19 20 21 22 23 24 25 26 27 28 29 30 31 32 33 34 35 36 37 38 39 40 41 42 43 44 45 46 47 48 49 50
000
FTUS43 KGRB 210649 AAA
TAFGRB
TAF AMD
KGRB 210649Z 2107/2206 05005KT 1/4SM DZ FG OVC002
     FM211200 09005KT 1/4SM FG VCSH OVC002
     FM211500 09006KT 3/4SM -DZ BR OVC003
     FM212200 13005KT 3/4SM -DZ BR OVC003
     FM220100 21004KT 1SM -DZ BR OVC004=

USA.gov is the U.S. government's official web portal to all federal, state and local government web resources and services.